createdAt,value
2023-04-22T00:04:32.501Z,4.7
2023-04-22T00:10:24.773Z,4.4
2023-04-22T00:16:16.544Z,4.3
2023-04-22T00:22:08.821Z,4.2
2023-04-22T00:28:00.810Z,4.1
2023-04-22T00:33:53.092Z,3.9
2023-04-22T00:39:44.943Z,3.8
2023-04-22T00:45:21.204Z,3.6
2023-04-22T00:51:13.409Z,3.4
2023-04-22T00:57:05.082Z,3.3
2023-04-22T01:02:42.092Z,3.2
2023-04-22T01:08:19.084Z,3.1
2023-04-22T01:13:56.366Z,2.9
2023-04-22T01:19:51.646Z,3
2023-04-22T01:25:42.650Z,2.9
2023-04-22T01:31:34.425Z,2.9
2023-04-22T01:37:26.911Z,2.9
2023-04-22T01:43:18.369Z,2.9
2023-04-22T01:49:10.308Z,2.9
2023-04-22T01:54:46.744Z,2.9
2023-04-22T02:00:22.736Z,3
2023-04-22T02:06:15.597Z,3.1
2023-04-22T02:12:08.410Z,3.1
2023-04-22T02:17:59.331Z,3.2
2023-04-22T02:23:51.769Z,3.2
2023-04-22T02:29:42.748Z,3.2
2023-04-22T02:35:34.629Z,3.1
2023-04-22T02:41:26.598Z,3.1
2023-04-22T02:47:17.704Z,3
2023-04-22T02:52:53.600Z,2.9
2023-04-22T02:58:45.682Z,2.8
2023-04-22T03:04:42.524Z,2.8
2023-04-22T03:10:33.766Z,2.8
2023-04-22T03:16:25.949Z,2.7
2023-04-22T03:22:18.448Z,2.6
2023-04-22T03:28:09.575Z,2.6
2023-04-22T03:34:02.036Z,2.5
2023-04-22T03:39:56.124Z,2.4
2023-04-22T03:45:49.271Z,2.4
2023-04-22T03:51:43.373Z,2.4
2023-04-22T03:57:35.339Z,2.4
2023-04-22T04:03:12.064Z,2.5
2023-04-22T04:09:08.849Z,2.6
2023-04-22T04:15:00.808Z,2.8
2023-04-22T04:20:53.697Z,3.1
2023-04-22T04:26:47.184Z,3.4
2023-04-22T04:32:23.550Z,3.6
2023-04-22T04:38:15.535Z,4.1
2023-04-22T04:43:52.430Z,5.1
2023-04-22T04:49:45.479Z,6.5
2023-04-22T04:55:36.828Z,8.4
2023-04-22T05:01:28.470Z,10.6
2023-04-22T05:07:22.541Z,11.9
2023-04-22T05:13:13.839Z,13.1
2023-04-22T05:19:05.651Z,14.8
2023-04-22T05:24:56.961Z,17.4
2023-04-22T05:30:33.311Z,20.5
2023-04-22T05:36:25.644Z,23.8
2023-04-22T05:42:20.680Z,26.8
2023-04-22T05:48:11.597Z,29.8
2023-04-22T05:54:03.696Z,32.9
2023-04-22T05:59:56.156Z,36.6
2023-04-22T06:05:50.919Z,40.4
2023-04-22T06:11:33.190Z,43.8
2023-04-22T06:17:24.738Z,46.9
2023-04-22T06:23:18.816Z,50.4
2023-04-22T06:28:55.184Z,53.6
2023-04-22T06:34:47.152Z,56.8
2023-04-22T06:40:38.426Z,53.8
2023-04-22T06:46:29.781Z,46
2023-04-22T06:52:22.766Z,49.8
2023-04-22T06:58:16.088Z,57.3
2023-04-22T07:03:54.049Z,49.6
2023-04-22T07:09:46.420Z,47.9
2023-04-22T07:15:22.276Z,58.1
2023-04-22T07:21:14.606Z,53.6
2023-04-22T07:27:06.376Z,49.9
2023-04-22T07:38:34.219Z,53.4
2023-04-22T07:44:25.997Z,54.7
2023-04-22T07:50:18.235Z,57.3
2023-04-22T07:56:12.764Z,58.6
2023-04-22T08:01:50.201Z,60.4
2023-04-22T08:08:00.766Z,61.4
2023-04-22T08:13:52.924Z,61.6
2023-04-22T08:19:44.800Z,62.8
2023-04-22T08:25:35.881Z,64
2023-04-22T08:31:28.291Z,64.8
2023-04-22T08:37:09.154Z,66.2
2023-04-22T08:43:08.071Z,67.1
2023-04-22T08:49:02.460Z,68
2023-04-22T08:54:54.348Z,68.9
2023-04-22T09:00:30.877Z,69.7
2023-04-22T09:06:23.643Z,70.6
2023-04-22T09:12:02.171Z,67.2
2023-04-22T09:17:53.667Z,68.4
2023-04-22T09:23:45.223Z,72.4
2023-04-22T09:29:37.081Z,72.8
2023-04-22T09:35:29.228Z,74.1
2023-04-22T09:41:29.748Z,74.6
2023-04-22T09:47:21.947Z,61.1
2023-04-22T09:53:13.632Z,56.8
2023-04-22T09:59:04.382Z,54.3
2023-04-22T10:04:56.504Z,57.1
2023-04-22T10:10:47.634Z,71.7
2023-04-22T10:16:48.716Z,77
2023-04-22T10:22:25.146Z,68.6
2023-04-22T10:28:15.700Z,70.4
2023-04-22T10:33:55.748Z,72.4
2023-04-22T10:39:49.509Z,73.8
2023-04-22T10:45:41.603Z,73.8
2023-04-22T10:51:18.563Z,74.4
2023-04-22T10:57:14.887Z,74.1
2023-04-22T11:03:21.725Z,74
2023-04-22T11:08:42.184Z,73.5
2023-04-22T11:14:33.932Z,71.7
2023-04-22T11:20:26.126Z,69.4
2023-04-22T11:26:20.629Z,71.3
2023-04-22T11:32:13.266Z,78.3
2023-04-22T11:37:50.007Z,74.5
2023-04-22T11:44:11.219Z,66.3
2023-04-22T11:50:03.314Z,74.1
2023-04-22T11:55:54.770Z,79.9
2023-04-22T12:01:31.190Z,72
2023-04-22T12:07:25.741Z,65.6
2023-04-22T12:13:17.180Z,71.1
2023-04-22T12:19:11.313Z,74.8
2023-04-22T12:25:02.963Z,76.8
2023-04-22T12:30:56.186Z,70.7
2023-04-22T12:36:48.391Z,65.8
2023-04-22T12:42:40.410Z,68.9
2023-04-22T12:48:32.952Z,70.9
2023-04-22T12:54:25.159Z,72.1
2023-04-22T13:00:16.946Z,72.3
2023-04-22T13:06:10.702Z,71.9
2023-04-22T13:12:14.019Z,71.4
2023-04-22T13:18:21.527Z,70.3
2023-04-22T13:24:13.466Z,69.6
2023-04-22T13:29:52.900Z,68.6
2023-04-22T13:35:45.411Z,67.5
2023-04-22T13:41:37.459Z,66.1
2023-04-22T13:47:29.903Z,64.7
2023-04-22T13:53:22.404Z,63.1
2023-04-22T13:59:14.747Z,60
2023-04-22T14:04:52.134Z,58.6
2023-04-22T14:10:29.338Z,57.1
2023-04-22T14:16:06.258Z,55.7
2023-04-22T14:21:45.862Z,54.7
2023-04-22T14:27:37.058Z,52.8
2023-04-22T14:33:30.566Z,50.7
2023-04-22T14:39:24.006Z,48.1
2023-04-22T14:45:18.192Z,45.7
2023-04-22T14:51:10.199Z,43.3
2023-04-22T14:57:10.314Z,40.8
2023-04-22T15:03:03.158Z,39
2023-04-22T15:08:54.295Z,37.6
2023-04-22T15:14:45.994Z,36.4
2023-04-22T15:20:39.586Z,36
2023-04-22T15:26:31.799Z,35.6
2023-04-22T15:32:25.614Z,34.8
2023-04-22T15:38:16.917Z,34.2
2023-04-22T15:44:08.956Z,33.2
2023-04-22T15:50:01.591Z,32.4
2023-04-22T15:55:37.360Z,31.6
2023-04-22T16:01:51.179Z,30.5
2023-04-22T16:07:44.118Z,29.5
2023-04-22T16:13:36.435Z,28.6
2023-04-22T16:19:27.694Z,27.4
2023-04-22T16:25:18.733Z,26.1
2023-04-22T16:31:10.817Z,24.9
2023-04-22T16:36:46.334Z,23.8
2023-04-22T16:42:22.238Z,22.9
2023-04-22T16:47:58.474Z,21.9
2023-04-22T16:53:49.914Z,20.8
2023-04-22T16:59:41.044Z,19.8
2023-04-22T17:05:36.249Z,18.8
2023-04-22T17:11:27.640Z,17.9
2023-04-22T17:17:19.422Z,17.2
2023-04-22T17:23:11.032Z,16.5
2023-04-22T17:29:01.760Z,15.8
2023-04-22T17:34:37.699Z,15.2
2023-04-22T17:40:30.650Z,14.6
2023-04-22T17:46:34.976Z,14
2023-04-22T17:52:26.489Z,13.5
2023-04-22T17:58:18.009Z,13.1
2023-04-22T18:04:11.006Z,12.7
2023-04-22T18:10:02.345Z,12.4
2023-04-22T18:15:55.022Z,12.1
2023-04-22T18:21:53.092Z,11.8
2023-04-22T18:27:50.879Z,11.6
2023-04-22T18:33:27.836Z,11.3
2023-04-22T18:39:18.588Z,11.1
2023-04-22T18:44:54.346Z,11
2023-04-22T18:50:46.185Z,10.8
2023-04-22T18:56:21.330Z,10.7
2023-04-22T19:01:58.985Z,10.6
2023-04-22T19:07:52.243Z,10.4
2023-04-22T19:13:44.360Z,10.3
2023-04-22T19:19:20.903Z,10.2
2023-04-22T19:24:57.339Z,10.1
2023-04-22T19:30:33.821Z,10.1
2023-04-22T19:36:26.248Z,10
2023-04-22T19:42:04.349Z,9.9
2023-04-22T19:47:40.190Z,9.8
2023-04-22T19:53:31.848Z,9.8
2023-04-22T19:59:23.132Z,9.6
2023-04-22T20:05:17.154Z,9.6
2023-04-22T20:11:08.719Z,9.5
2023-04-22T20:17:00.504Z,9.4
2023-04-22T20:22:52.755Z,9.3
2023-04-22T20:28:44.930Z,9.1
2023-04-22T20:34:36.892Z,9
2023-04-22T20:40:28.124Z,8.9
2023-04-22T20:46:21.496Z,8.8
2023-04-22T20:52:14.216Z,8.7
2023-04-22T20:58:17.516Z,8.5
2023-04-22T21:04:10.732Z,8.4
2023-04-22T21:10:02.897Z,8.2
2023-04-22T21:15:55.678Z,8.1
2023-04-22T21:21:47.514Z,7.9
2023-04-22T21:27:39.283Z,7.8
2023-04-22T21:33:42.563Z,7.6
2023-04-22T21:39:36.566Z,7.5
2023-04-22T21:45:28.844Z,7.3
2023-04-22T21:51:04.134Z,7.1
2023-04-22T21:56:55.219Z,7
2023-04-22T22:02:31.612Z,6.8
2023-04-22T22:08:11.861Z,6.6
2023-04-22T22:14:14.873Z,6.4
2023-04-22T22:20:08.129Z,6.1
2023-04-22T22:25:59.795Z,5.9
2023-04-22T22:31:51.618Z,5.6
2023-04-22T22:37:44.073Z,5.4
2023-04-22T22:43:35.706Z,5.1
2023-04-22T22:49:28.830Z,4.9
2023-04-22T22:55:20.335Z,4.7
2023-04-22T23:01:11.954Z,4.4
2023-04-22T23:07:06.038Z,4.3
2023-04-22T23:12:42.222Z,4.1
2023-04-22T23:18:33.604Z,3.9
2023-04-22T23:24:24.632Z,3.8
2023-04-22T23:30:15.967Z,3.6
2023-04-22T23:36:07.249Z,3.5
2023-04-22T23:41:59.190Z,3.4
2023-04-22T23:47:51.672Z,3.3
2023-04-22T23:53:27.900Z,3.2
2023-04-22T23:59:19.485Z,3.1
